sensor_id;sensor_type;location;lat;lon;timestamp;pressure;altitude;pressure_sealevel;temperature;humidity
60089;BME280;45961;53.574;55.878;2023-04-26T01:51:12;100153.84;;;14.09;47.89
60089;BME280;45961;53.574;55.878;2023-04-26T01:52:13;100156.47;;;14.03;48.43
60089;BME280;45961;53.574;55.878;2023-04-26T01:53:14;100155.59;;;14.05;48.19
60089;BME280;45961;53.574;55.878;2023-04-26T01:54:15;100153.00;;;14.07;47.96
60089;BME280;45961;53.574;55.878;2023-04-26T01:55:16;100153.00;;;14.07;47.82
60089;BME280;45961;53.574;55.878;2023-04-26T01:56:18;100149.50;;;14.11;47.08
60089;BME280;45961;53.574;55.878;2023-04-26T01:57:19;100151.22;;;14.15;46.58
60089;BME280;45961;53.574;55.878;2023-04-26T01:58:20;100151.19;;;14.17;46.36
60089;BME280;45961;53.574;55.878;2023-04-26T01:59:23;100145.94;;;14.21;46.25
60089;BME280;45961;53.574;55.878;2023-04-26T02:00:25;100151.16;;;14.21;46.41
60089;BME280;45961;53.574;55.878;2023-04-26T02:01:25;100139.00;;;14.23;46.05
60089;BME280;45961;53.574;55.878;2023-04-26T02:02:26;100145.94;;;14.27;45.91
60089;BME280;45961;53.574;55.878;2023-04-26T02:03:27;100145.03;;;14.28;46.14
60089;BME280;45961;53.574;55.878;2023-04-26T02:04:28;100140.66;;;14.30;45.91
60089;BME280;45961;53.574;55.878;2023-04-26T02:05:29;100144.16;;;14.32;46.01
60089;BME280;45961;53.574;55.878;2023-04-26T02:06:30;100140.63;;;14.35;46.14
60089;BME280;45961;53.574;55.878;2023-04-26T02:07:31;100141.50;;;14.37;46.19
60089;BME280;45961;53.574;55.878;2023-04-26T02:08:32;100143.22;;;14.38;46.16
60089;BME280;45961;53.574;55.878;2023-04-26T02:09:33;100138.88;;;14.39;46.11
60089;BME280;45961;53.574;55.878;2023-04-26T02:10:35;100138.88;;;14.39;46.25
60089;BME280;45961;53.574;55.878;2023-04-26T02:11:36;100137.16;;;14.39;46.17
60089;BME280;45961;53.574;55.878;2023-04-26T02:12:37;100136.31;;;14.36;46.66
60089;BME280;45961;53.574;55.878;2023-04-26T02:13:38;100137.16;;;14.39;46.71
60089;BME280;45961;53.574;55.878;2023-04-26T02:14:39;100136.25;;;14.39;46.56
60089;BME280;45961;53.574;55.878;2023-04-26T02:15:40;100131.94;;;14.38;46.64
60089;BME280;45961;53.574;55.878;2023-04-26T02:16:41;100130.22;;;14.40;46.56
60089;BME280;45961;53.574;55.878;2023-04-26T02:17:41;100135.38;;;14.43;46.65
60089;BME280;45961;53.574;55.878;2023-04-26T02:18:42;100140.63;;;14.40;46.87
60089;BME280;45961;53.574;55.878;2023-04-26T02:19:43;100129.34;;;14.39;46.57
60089;BME280;45961;53.574;55.878;2023-04-26T02:20:45;100124.09;;;14.42;46.16
60089;BME280;45961;53.574;55.878;2023-04-26T02:21:50;100132.75;;;14.47;46.11
60089;BME280;45961;53.574;55.878;2023-04-26T02:22:52;100130.13;;;14.50;46.01
60089;BME280;45961;53.574;55.878;2023-04-26T02:23:55;100125.78;;;14.51;45.91
60089;BME280;45961;53.574;55.878;2023-04-26T02:24:57;100126.69;;;14.45;45.55
60089;BME280;45961;53.574;55.878;2023-04-26T02:26:04;100122.34;;;14.49;45.54
60089;BME280;45961;53.574;55.878;2023-04-26T02:27:05;100124.88;;;14.55;45.37
60089;BME280;45961;53.574;55.878;2023-04-26T02:28:07;100119.66;;;14.58;45.02
60089;BME280;45961;53.574;55.878;2023-04-26T02:29:10;100113.56;;;14.61;44.84
60089;BME280;45961;53.574;55.878;2023-04-26T02:30:11;100121.34;;;14.62;45.12
60089;BME280;45961;53.574;55.878;2023-04-26T02:31:12;100117.91;;;14.60;45.11
60089;BME280;45961;53.574;55.878;2023-04-26T02:32:14;100117.84;;;14.63;44.95
60089;BME280;45961;53.574;55.878;2023-04-26T02:33:15;100123.91;;;14.68;44.78
60089;BME280;45961;53.574;55.878;2023-04-26T02:34:16;100118.69;;;14.71;44.79
60089;BME280;45961;53.574;55.878;2023-04-26T02:35:16;100115.16;;;14.75;44.79
60089;BME280;45961;53.574;55.878;2023-04-26T02:36:18;100112.50;;;14.78;44.11
60089;BME280;45961;53.574;55.878;2023-04-26T02:37:19;100111.59;;;14.82;43.91
60089;BME280;45961;53.574;55.878;2023-04-26T02:38:21;100103.75;;;14.86;43.76
60089;BME280;45961;53.574;55.878;2023-04-26T02:39:22;100103.75;;;14.86;43.66
60089;BME280;45961;53.574;55.878;2023-04-26T02:40:23;100100.25;;;14.87;43.60
60089;BME280;45961;53.574;55.878;2023-04-26T02:41:25;100097.66;;;14.88;43.59
60089;BME280;45961;53.574;55.878;2023-04-26T02:42:26;100097.59;;;14.96;43.02
60089;BME280;45961;53.574;55.878;2023-04-26T02:43:27;100088.88;;;14.97;43.24
60089;BME280;45961;53.574;55.878;2023-04-26T02:44:29;100090.56;;;15.01;43.45
60089;BME280;45961;53.574;55.878;2023-04-26T02:45:30;100092.25;;;15.05;43.21
60089;BME280;45961;53.574;55.878;2023-04-26T02:46:32;100090.47;;;15.09;43.08
60089;BME280;45961;53.574;55.878;2023-04-26T02:47:33;100095.66;;;15.10;43.23
60089;BME280;45961;53.574;55.878;2023-04-26T02:48:36;100085.22;;;15.13;43.00
60089;BME280;45961;53.574;55.878;2023-04-26T02:49:37;100085.19;;;15.15;42.94
60089;BME280;45961;53.574;55.878;2023-04-26T02:50:38;100083.44;;;15.17;42.90
60089;BME280;45961;53.574;55.878;2023-04-26T02:51:39;100080.81;;;15.17;42.63
60089;BME280;45961;53.574;55.878;2023-04-26T02:52:40;100084.22;;;15.22;42.51
60089;BME280;45961;53.574;55.878;2023-04-26T02:53:41;100083.31;;;15.26;42.32
60089;BME280;45961;53.574;55.878;2023-04-26T02:54:42;100084.13;;;15.29;42.44
60089;BME280;45961;53.574;55.878;2023-04-26T02:55:43;100082.38;;;15.31;42.33
60089;BME280;45961;53.574;55.878;2023-04-26T02:56:44;100077.13;;;15.35;42.39
60089;BME280;45961;53.574;55.878;2023-04-26T02:57:45;100081.41;;;15.40;42.23
60089;BME280;45961;53.574;55.878;2023-04-26T02:58:47;100080.47;;;15.43;41.96
60089;BME280;45961;53.574;55.878;2023-04-26T02:59:48;100079.59;;;15.45;42.03
60089;BME280;45961;53.574;55.878;2023-04-26T03:00:48;100076.09;;;15.48;42.27
60089;BME280;45961;53.574;55.878;2023-04-26T03:01:49;100076.88;;;15.53;41.73
60089;BME280;45961;53.574;55.878;2023-04-26T03:02:50;100075.97;;;15.55;42.06
60089;BME280;45961;53.574;55.878;2023-04-26T03:03:53;100070.72;;;15.59;42.09
60089;BME280;45961;53.574;55.878;2023-04-26T03:04:54;100072.41;;;15.63;42.01
60089;BME280;45961;53.574;55.878;2023-04-26T03:05:55;100069.75;;;15.67;41.77
60089;BME280;45961;53.574;55.878;2023-04-26T03:06:56;100072.34;;;15.69;41.51
60089;BME280;45961;53.574;55.878;2023-04-26T03:07:57;100069.69;;;15.73;40.95
60089;BME280;45961;53.574;55.878;2023-04-26T03:08:58;100066.13;;;15.77;40.43
60089;BME280;45961;53.574;55.878;2023-04-26T03:09:59;100063.41;;;15.84;40.27
60089;BME280;45961;53.574;55.878;2023-04-26T03:11:00;100062.50;;;15.88;40.29
60089;BME280;45961;53.574;55.878;2023-04-26T03:12:01;100065.91;;;15.91;40.17
60089;BME280;45961;53.574;55.878;2023-04-26T03:13:05;100056.31;;;15.93;39.68
60089;BME280;45961;53.574;55.878;2023-04-26T03:14:07;100057.06;;;16.00;39.56
60089;BME280;45961;53.574;55.878;2023-04-26T03:15:07;100064.00;;;16.04;39.80
60089;BME280;45961;53.574;55.878;2023-04-26T03:16:09;100064.78;;;16.08;39.23
60089;BME280;45961;53.574;55.878;2023-04-26T03:17:10;100069.06;;;16.13;38.84
60089;BME280;45961;53.574;55.878;2023-04-26T03:18:11;100065.53;;;16.17;38.88
60089;BME280;45961;53.574;55.878;2023-04-26T03:19:13;100061.03;;;16.24;38.72
60089;BME280;45961;53.574;55.878;2023-04-26T03:20:14;100055.78;;;16.27;38.60
60089;BME280;45961;53.574;55.878;2023-04-26T03:21:15;100059.16;;;16.32;38.57
60089;BME280;45961;53.574;55.878;2023-04-26T03:22:16;100057.31;;;16.40;38.44
60089;BME280;45961;53.574;55.878;2023-04-26T03:23:18;100058.16;;;16.41;38.32
60089;BME280;45961;53.574;55.878;2023-04-26T03:24:19;100048.44;;;16.49;37.71
60089;BME280;45961;53.574;55.878;2023-04-26T03:25:20;100044.81;;;16.56;37.24
60089;BME280;45961;53.574;55.878;2023-04-26T03:26:21;100043.84;;;16.60;37.31
60089;BME280;45961;53.574;55.878;2023-04-26T03:27:22;100048.19;;;16.63;37.38
60089;BME280;45961;53.574;55.878;2023-04-26T03:28:22;100047.28;;;16.65;37.55
60089;BME280;45961;53.574;55.878;2023-04-26T03:29:23;100043.75;;;16.66;37.57
60089;BME280;45961;53.574;55.878;2023-04-26T03:30:24;100040.25;;;16.67;37.49
60089;BME280;45961;53.574;55.878;2023-04-26T03:31:25;100037.59;;;16.70;37.36
60089;BME280;45961;53.574;55.878;2023-04-26T03:32:26;100033.16;;;16.77;36.96
60089;BME280;45961;53.574;55.878;2023-04-26T03:33:27;100034.81;;;16.80;37.06
60089;BME280;45961;53.574;55.878;2023-04-26T03:34:28;100033.88;;;16.84;36.95
60089;BME280;45961;53.574;55.878;2023-04-26T03:35:30;100027.72;;;16.86;36.91
60089;BME280;45961;53.574;55.878;2023-04-26T03:36:31;100030.25;;;16.91;36.50
60089;BME280;45961;53.574;55.878;2023-04-26T03:37:32;100024.03;;;16.96;36.65
60089;BME280;45961;53.574;55.878;2023-04-26T03:38:37;100025.72;;;16.99;36.68
60089;BME280;45961;53.574;55.878;2023-04-26T03:39:38;100023.94;;;17.01;36.20
60089;BME280;45961;53.574;55.878;2023-04-26T03:40:39;100029.88;;;17.09;35.93
60089;BME280;45961;53.574;55.878;2023-04-26T03:41:40;100023.69;;;17.13;35.90
60089;BME280;45961;53.574;55.878;2023-04-26T03:42:44;100020.13;;;17.17;36.10
60089;BME280;45961;53.574;55.878;2023-04-26T03:43:45;100016.56;;;17.21;36.04
60089;BME280;45961;53.574;55.878;2023-04-26T03:44:46;100004.22;;;17.26;35.75
60089;BME280;45961;53.574;55.878;2023-04-26T03:45:48;100004.97;;;17.32;35.80
60089;BME280;45961;53.574;55.878;2023-04-26T03:46:49;100010.94;;;17.38;35.66
60089;BME280;45961;53.574;55.878;2023-04-26T03:47:50;100011.69;;;17.43;35.75
60089;BME280;45961;53.574;55.878;2023-04-26T03:48:51;100010.72;;;17.49;35.30
60089;BME280;45961;53.574;55.878;2023-04-26T03:49:52;100000.94;;;17.57;34.79
60089;BME280;45961;53.574;55.878;2023-04-26T03:50:53;100001.75;;;17.59;35.13
60089;BME280;45961;53.574;55.878;2023-04-26T03:51:53;100006.00;;;17.65;34.24
60089;BME280;45961;53.574;55.878;2023-04-26T03:52:54;100009.28;;;17.73;34.75
60089;BME280;45961;53.574;55.878;2023-04-26T03:53:56;100011.78;;;17.79;34.49
60089;BME280;45961;53.574;55.878;2023-04-26T03:54:57;100013.47;;;17.82;34.63
60089;BME280;45961;53.574;55.878;2023-04-26T03:55:58;100008.16;;;17.85;34.52
60089;BME280;45961;53.574;55.878;2023-04-26T03:56:59;99997.59;;;17.88;34.27
60089;BME280;45961;53.574;55.878;2023-04-26T03:58:00;100000.97;;;17.93;34.02
60089;BME280;45961;53.574;55.878;2023-04-26T03:59:02;99996.50;;;17.96;33.78
60089;BME280;45961;53.574;55.878;2023-04-26T04:00:03;99981.59;;;18.00;33.07
60089;BME280;45961;53.574;55.878;2023-04-26T04:01:17;99984.00;;;18.09;33.67
60089;BME280;45961;53.574;55.878;2023-04-26T04:02:20;99990.88;;;18.12;33.92
60089;BME280;45961;53.574;55.878;2023-04-26T04:03:20;99987.47;;;18.10;33.62
60089;BME280;45961;53.574;55.878;2023-04-26T04:04:21;99981.19;;;18.15;33.54
60089;BME280;45961;53.574;55.878;2023-04-26T04:05:22;99979.50;;;18.14;33.57
60089;BME280;45961;53.574;55.878;2023-04-26T04:06:23;99975.03;;;18.18;33.04
60089;BME280;45961;53.574;55.878;2023-04-26T04:07:24;99974.84;;;18.24;32.65
60089;BME280;45961;53.574;55.878;2023-04-26T04:08:25;99974.72;;;18.29;32.69
60089;BME280;45961;53.574;55.878;2023-04-26T04:09:26;99973.75;;;18.33;32.89
60089;BME280;45961;53.574;55.878;2023-04-26T04:10:27;99964.91;;;18.37;32.43
60089;BME280;45961;53.574;55.878;2023-04-26T04:11:28;99968.44;;;18.36;32.12
60089;BME280;45961;53.574;55.878;2023-04-26T04:12:30;99977.81;;;18.44;31.83
60089;BME280;45961;53.574;55.878;2023-04-26T04:13:32;99959.47;;;18.44;31.93
60089;BME280;45961;53.574;55.878;2023-04-26T04:14:33;99964.69;;;18.46;32.21
60089;BME280;45961;53.574;55.878;2023-04-26T04:15:34;99967.13;;;18.52;32.74
60089;BME280;45961;53.574;55.878;2023-04-26T04:16:34;99963.69;;;18.50;32.88
60089;BME280;45961;53.574;55.878;2023-04-26T04:17:35;99967.16;;;18.50;32.30
60089;BME280;45961;53.574;55.878;2023-04-26T04:18:36;99963.63;;;18.52;32.11
60089;BME280;45961;53.574;55.878;2023-04-26T04:19:37;99968.16;;;18.46;32.04
60089;BME280;45961;53.574;55.878;2023-04-26T04:20:39;99965.56;;;18.45;32.33
60089;BME280;45961;53.574;55.878;2023-04-26T04:21:41;99961.94;;;18.49;32.52
60089;BME280;45961;53.574;55.878;2023-04-26T04:22:42;99957.53;;;18.51;32.31
60089;BME280;45961;53.574;55.878;2023-04-26T04:23:43;99962.84;;;18.49;32.25
60089;BME280;45961;53.574;55.878;2023-04-26T04:24:45;99957.53;;;18.51;32.27
60089;BME280;45961;53.574;55.878;2023-04-26T04:25:47;99955.69;;;18.55;31.48
60089;BME280;45961;53.574;55.878;2023-04-26T04:26:49;99957.28;;;18.60;31.77
60089;BME280;45961;53.574;55.878;2023-04-26T04:27:50;99953.94;;;18.55;31.92
60089;BME280;45961;53.574;55.878;2023-04-26T04:28:53;99953.06;;;18.55;32.50
60089;BME280;45961;53.574;55.878;2023-04-26T04:29:55;99955.63;;;18.56;32.19
60089;BME280;45961;53.574;55.878;2023-04-26T04:30:56;99958.25;;;18.58;31.70
60089;BME280;45961;53.574;55.878;2023-04-26T04:31:57;99952.16;;;18.56;31.58
60089;BME280;45961;53.574;55.878;2023-04-26T04:32:57;99952.09;;;18.57;31.33
60089;BME280;45961;53.574;55.878;2023-04-26T04:33:59;99947.63;;;18.61;31.28
60089;BME280;45961;53.574;55.878;2023-04-26T04:35:00;99954.56;;;18.63;31.31
60089;BME280;45961;53.574;55.878;2023-04-26T04:36:01;99947.69;;;18.59;31.06
60089;BME280;45961;53.574;55.878;2023-04-26T04:37:02;99948.47;;;18.63;30.51
60089;BME280;45961;53.574;55.878;2023-04-26T04:38:04;99945.78;;;18.64;30.95
60089;BME280;45961;53.574;55.878;2023-04-26T04:39:05;99943.22;;;18.63;30.91
60089;BME280;45961;53.574;55.878;2023-04-26T04:40:15;99943.91;;;18.71;30.73
60089;BME280;45961;53.574;55.878;2023-04-26T04:41:20;99941.19;;;18.74;30.81
60089;BME280;45961;53.574;55.878;2023-04-26T04:42:22;99940.44;;;18.70;30.75
60089;BME280;45961;53.574;55.878;2023-04-26T04:43:23;99945.63;;;18.72;31.05
60089;BME280;45961;53.574;55.878;2023-04-26T04:44:24;99937.72;;;18.73;30.83
60089;BME280;45961;53.574;55.878;2023-04-26T04:45:27;99946.56;;;18.69;31.01
60089;BME280;45961;53.574;55.878;2023-04-26T04:46:30;99939.50;;;18.71;30.83
60089;BME280;45961;53.574;55.878;2023-04-26T04:47:31;99929.84;;;18.73;30.59
60089;BME280;45961;53.574;55.878;2023-04-26T04:48:33;99922.94;;;18.69;30.45
60089;BME280;45961;53.574;55.878;2023-04-26T04:49:35;99930.81;;;18.69;29.93
60089;BME280;45961;53.574;55.878;2023-04-26T04:50:37;99921.22;;;18.68;30.16
60089;BME280;45961;53.574;55.878;2023-04-26T04:51:39;99922.94;;;18.69;30.03
60089;BME280;45961;53.574;55.878;2023-04-26T04:52:40;99929.03;;;18.71;30.14
60089;BME280;45961;53.574;55.878;2023-04-26T04:53:41;99932.50;;;18.72;29.84
60089;BME280;45961;53.574;55.878;2023-04-26T04:54:43;99920.22;;;18.74;29.83
60089;BME280;45961;53.574;55.878;2023-04-26T04:55:44;99926.25;;;18.78;29.61
60089;BME280;45961;53.574;55.878;2023-04-26T04:56:46;99930.66;;;18.76;29.90
60089;BME280;45961;53.574;55.878;2023-04-26T04:57:52;99924.50;;;18.77;29.95
60089;BME280;45961;53.574;55.878;2023-04-26T04:58:53;99921.88;;;18.77;29.89
60089;BME280;45961;53.574;55.878;2023-04-26T04:59:55;99928.16;;;18.71;29.90
60089;BME280;45961;53.574;55.878;2023-04-26T05:00:56;99918.53;;;18.71;29.91
60089;BME280;45961;53.574;55.878;2023-04-26T05:02:03;99934.19;;;18.74;30.01
60089;BME280;45961;53.574;55.878;2023-04-26T05:03:05;99922.00;;;18.73;29.88
60089;BME280;45961;53.574;55.878;2023-04-26T05:04:09;99927.91;;;18.80;29.83
60089;BME280;45961;53.574;55.878;2023-04-26T05:05:11;99920.09;;;18.79;29.79
60089;BME280;45961;53.574;55.878;2023-04-26T05:06:12;99913.13;;;18.78;29.82
60089;BME280;45961;53.574;55.878;2023-04-26T05:07:13;99914.00;;;18.77;29.73
60089;BME280;45961;53.574;55.878;2023-04-26T05:08:16;99926.13;;;18.81;29.58
60089;BME280;45961;53.574;55.878;2023-04-26T05:09:22;99922.50;;;18.85;29.25
60089;BME280;45961;53.574;55.878;2023-04-26T05:10:23;99918.09;;;18.87;29.58
60089;BME280;45961;53.574;55.878;2023-04-26T05:11:24;99921.50;;;18.89;29.71
60089;BME280;45961;53.574;55.878;2023-04-26T05:12:25;99917.19;;;18.88;29.23
60089;BME280;45961;53.574;55.878;2023-04-26T05:13:28;99919.56;;;18.95;29.35
60089;BME280;45961;53.574;55.878;2023-04-26T05:14:30;99918.44;;;19.04;29.23
60089;BME280;45961;53.574;55.878;2023-04-26T05:15:30;99925.28;;;19.10;29.71
60089;BME280;45961;53.574;55.878;2023-04-26T05:16:32;99931.25;;;19.13;29.37
60089;BME280;45961;53.574;55.878;2023-04-26T05:17:35;99920.59;;;19.19;29.38
60089;BME280;45961;53.574;55.878;2023-04-26T05:18:54;99917.81;;;19.24;29.15
60089;BME280;45961;53.574;55.878;2023-04-26T05:19:55;99938.81;;;19.24;29.56
60089;BME280;45961;53.574;55.878;2023-04-26T05:20:56;99920.34;;;19.27;28.96
60089;BME280;45961;53.574;55.878;2023-04-26T05:21:57;99914.25;;;19.27;28.79
60089;BME280;45961;53.574;55.878;2023-04-26T05:22:58;99920.28;;;19.29;28.45
60089;BME280;45961;53.574;55.878;2023-04-26T05:23:59;99918.28;;;19.37;28.69
60089;BME280;45961;53.574;55.878;2023-04-26T05:25:00;99913.81;;;19.40;28.68
60089;BME280;45961;53.574;55.878;2023-04-26T05:26:04;99911.84;;;19.47;28.33
60089;BME280;45961;53.574;55.878;2023-04-26T05:27:17;99897.81;;;19.48;28.33
60089;BME280;45961;53.574;55.878;2023-04-26T05:28:26;99902.81;;;19.56;28.49
60089;BME280;45961;53.574;55.878;2023-04-26T05:29:46;99899.06;;;19.64;28.34
60089;BME280;45961;53.574;55.878;2023-04-26T05:31:17;99902.25;;;19.74;28.50
60089;BME280;45961;53.574;55.878;2023-04-26T05:32:41;99893.22;;;19.81;28.25
60089;BME280;45961;53.574;55.878;2023-04-26T05:33:50;99896.44;;;19.89;28.58
60089;BME280;45961;53.574;55.878;2023-04-26T05:35:01;99890.72;;;20.03;28.85
60089;BME280;45961;53.574;55.878;2023-04-26T05:36:04;99886.09;;;20.10;28.47
60089;BME280;45961;53.574;55.878;2023-04-26T05:37:05;99885.91;;;20.16;28.28
60089;BME280;45961;53.574;55.878;2023-04-26T05:38:06;99881.59;;;20.13;28.67
60089;BME280;45961;53.574;55.878;2023-04-26T05:39:07;99880.91;;;20.08;28.28
60089;BME280;45961;53.574;55.878;2023-04-26T05:40:08;99876.31;;;20.15;28.34
60089;BME280;45961;53.574;55.878;2023-04-26T05:41:11;99877.06;;;20.18;28.06
60089;BME280;45961;53.574;55.878;2023-04-26T05:42:12;99874.53;;;20.15;27.83
60089;BME280;45961;53.574;55.878;2023-04-26T05:43:14;99868.34;;;20.16;27.79
60089;BME280;45961;53.574;55.878;2023-04-26T05:44:15;99878.88;;;20.16;27.69
60089;BME280;45961;53.574;55.878;2023-04-26T05:45:16;99876.91;;;20.21;27.69
60089;BME280;45961;53.574;55.878;2023-04-26T05:46:17;99856.66;;;20.25;27.65
60089;BME280;45961;53.574;55.878;2023-04-26T05:47:18;99871.34;;;20.31;27.97
60089;BME280;45961;53.574;55.878;2023-04-26T05:48:19;99866.88;;;20.33;27.67
60089;BME280;45961;53.574;55.878;2023-04-26T05:49:21;99858.50;;;20.23;27.42
60089;BME280;45961;53.574;55.878;2023-04-26T05:50:22;99864.50;;;20.27;27.66
60089;BME280;45961;53.574;55.878;2023-04-26T05:51:23;99863.69;;;20.25;27.56
60089;BME280;45961;53.574;55.878;2023-04-26T05:52:25;99862.63;;;20.30;27.35
60089;BME280;45961;53.574;55.878;2023-04-26T05:53:26;99859.09;;;20.30;27.84
60089;BME280;45961;53.574;55.878;2023-04-26T05:54:27;99863.31;;;20.34;27.71
60089;BME280;45961;53.574;55.878;2023-04-26T05:55:29;99858.81;;;20.37;27.39
60089;BME280;45961;53.574;55.878;2023-04-26T05:56:33;99854.41;;;20.38;27.81
60089;BME280;45961;53.574;55.878;2023-04-26T05:57:33;99851.56;;;20.44;27.94
60089;BME280;45961;53.574;55.878;2023-04-26T05:58:34;99855.91;;;20.45;27.87
60089;BME280;45961;53.574;55.878;2023-04-26T05:59:37;99856.25;;;20.36;27.88
60089;BME280;45961;53.574;55.878;2023-04-26T06:00:38;99857.59;;;20.48;27.61
60089;BME280;45961;53.574;55.878;2023-04-26T06:01:41;99862.63;;;20.54;27.67
60089;BME280;45961;53.574;55.878;2023-04-26T06:02:42;99855.59;;;20.54;27.66
60089;BME280;45961;53.574;55.878;2023-04-26T06:03:48;99860.69;;;20.59;27.82
60089;BME280;45961;53.574;55.878;2023-04-26T06:04:51;99869.19;;;20.65;27.57
60089;BME280;45961;53.574;55.878;2023-04-26T06:05:53;99861.88;;;20.74;27.37
60089;BME280;45961;53.574;55.878;2023-04-26T06:06:56;99866.25;;;20.75;27.60
60089;BME280;45961;53.574;55.878;2023-04-26T06:07:57;99867.66;;;20.83;27.42
60089;BME280;45961;53.574;55.878;2023-04-26T06:08:58;99870.13;;;20.86;27.75
60089;BME280;45961;53.574;55.878;2023-04-26T06:10:02;99869.34;;;20.84;27.78
60089;BME280;45961;53.574;55.878;2023-04-26T06:11:03;99860.63;;;20.84;27.27
60089;BME280;45961;53.574;55.878;2023-04-26T06:12:04;99861.66;;;20.80;27.02
60089;BME280;45961;53.574;55.878;2023-04-26T06:13:08;99854.53;;;20.82;27.35
60089;BME280;45961;53.574;55.878;2023-04-26T06:14:11;99863.69;;;20.95;27.61
60089;BME280;45961;53.574;55.878;2023-04-26T06:15:12;99863.69;;;20.95;27.30
60089;BME280;45961;53.574;55.878;2023-04-26T06:16:13;99861.84;;;20.97;27.36
60089;BME280;45961;53.574;55.878;2023-04-26T06:17:14;99859.72;;;21.07;27.35
60089;BME280;45961;53.574;55.878;2023-04-26T06:18:16;99857.94;;;21.07;27.09
60089;BME280;45961;53.574;55.878;2023-04-26T06:19:17;99853.41;;;21.11;27.18
60089;BME280;45961;53.574;55.878;2023-04-26T06:20:18;99852.41;;;21.13;27.01
60089;BME280;45961;53.574;55.878;2023-04-26T06:21:19;99845.53;;;21.11;26.82
60089;BME280;45961;53.574;55.878;2023-04-26T06:22:20;99848.94;;;21.13;26.60
60089;BME280;45961;53.574;55.878;2023-04-26T06:23:21;99848.16;;;21.11;26.88
60089;BME280;45961;53.574;55.878;2023-04-26T06:24:22;99849.19;;;21.07;26.74
60089;BME280;45961;53.574;55.878;2023-04-26T06:25:23;99842.53;;;21.18;26.72
60089;BME280;45961;53.574;55.878;2023-04-26T06:26:23;99846.38;;;21.33;26.80
60089;BME280;45961;53.574;55.878;2023-04-26T06:27:24;99845.75;;;21.27;26.83
60089;BME280;45961;53.574;55.878;2023-04-26T06:28:26;99843.69;;;21.35;27.02
60089;BME280;45961;53.574;55.878;2023-04-26T06:29:27;99834.06;;;21.34;26.54
60089;BME280;45961;53.574;55.878;2023-04-26T06:30:27;99832.13;;;21.39;26.70
60089;BME280;45961;53.574;55.878;2023-04-26T06:31:28;99831.22;;;21.38;26.68
60089;BME280;45961;53.574;55.878;2023-04-26T06:32:31;99824.91;;;21.42;26.28
60089;BME280;45961;53.574;55.878;2023-04-26T06:33:32;99826.25;;;21.53;26.38
60089;BME280;45961;53.574;55.878;2023-04-26T06:34:33;99831.72;;;21.68;26.66
60089;BME280;45961;53.574;55.878;2023-04-26T06:35:40;99825.28;;;21.76;26.26
60089;BME280;45961;53.574;55.878;2023-04-26T06:36:42;99828.16;;;21.69;26.33
60089;BME280;45961;53.574;55.878;2023-04-26T06:37:43;99826.06;;;21.57;26.12
60089;BME280;45961;53.574;55.878;2023-04-26T06:38:48;99825.81;;;21.63;25.91
60089;BME280;45961;53.574;55.878;2023-04-26T06:39:48;99826.66;;;21.64;25.97
60089;BME280;45961;53.574;55.878;2023-04-26T06:40:50;99817.94;;;21.82;26.31
60089;BME280;45961;53.574;55.878;2023-04-26T06:41:51;99817.75;;;21.87;25.94
60089;BME280;45961;53.574;55.878;2023-04-26T06:43:00;99833.91;;;22.00;26.31
60089;BME280;45961;53.574;55.878;2023-04-26T06:44:24;99814.31;;;22.05;25.94
60089;BME280;45961;53.574;55.878;2023-04-26T06:45:24;99825.25;;;22.16;26.05
60089;BME280;45961;53.574;55.878;2023-04-26T06:46:25;99817.22;;;22.20;25.82
60089;BME280;45961;53.574;55.878;2023-04-26T06:47:27;99822.16;;;22.27;25.79
60089;BME280;45961;53.574;55.878;2023-04-26T06:48:29;99808.59;;;22.35;25.77
60089;BME280;45961;53.574;55.878;2023-04-26T06:49:30;99818.75;;;22.44;25.82
60089;BME280;45961;53.574;55.878;2023-04-26T06:50:31;99815.16;;;22.45;25.56
60089;BME280;45961;53.574;55.878;2023-04-26T06:51:31;99800.09;;;22.47;25.34
60089;BME280;45961;53.574;55.878;2023-04-26T06:52:32;99808.09;;;22.46;25.48
60089;BME280;45961;53.574;55.878;2023-04-26T06:53:34;99811.19;;;22.55;25.58
60089;BME280;45961;53.574;55.878;2023-04-26T06:54:34;99794.47;;;22.55;25.37
60089;BME280;45961;53.574;55.878;2023-04-26T06:55:35;99812.09;;;22.54;25.41
60089;BME280;45961;53.574;55.878;2023-04-26T06:56:36;99804.31;;;22.51;25.36
60089;BME280;45961;53.574;55.878;2023-04-26T06:57:37;99798.13;;;22.52;25.44
60089;BME280;45961;53.574;55.878;2023-04-26T06:58:38;99804.16;;;22.73;25.60
60089;BME280;45961;53.574;55.878;2023-04-26T06:59:39;99803.09;;;22.77;25.16
60089;BME280;45961;53.574;55.878;2023-04-26T07:00:39;99788.13;;;22.78;25.13
60089;BME280;45961;53.574;55.878;2023-04-26T07:01:40;99791.38;;;22.83;25.08
60089;BME280;45961;53.574;55.878;2023-04-26T07:02:44;99784.16;;;22.86;25.28
60089;BME280;45961;53.574;55.878;2023-04-26T07:03:45;99785.53;;;22.95;25.41
60089;BME280;45961;53.574;55.878;2023-04-26T07:04:46;99806.72;;;23.12;25.96
60089;BME280;45961;53.574;55.878;2023-04-26T07:05:46;99794.13;;;23.18;25.38
60089;BME280;45961;53.574;55.878;2023-04-26T07:06:48;99787.56;;;23.07;25.39
60089;BME280;45961;53.574;55.878;2023-04-26T07:07:49;99783.84;;;23.11;25.36
60089;BME280;45961;53.574;55.878;2023-04-26T07:08:53;99786.72;;;23.07;25.09
60089;BME280;45961;53.574;55.878;2023-04-26T07:09:53;99787.06;;;23.18;25.14
60089;BME280;45961;53.574;55.878;2023-04-26T07:10:54;99787.13;;;23.17;25.06
60089;BME280;45961;53.574;55.878;2023-04-26T07:11:55;99789.94;;;23.31;24.88
60089;BME280;45961;53.574;55.878;2023-04-26T07:12:56;99777.97;;;23.41;25.05